createdAt,value
2023-03-23T15:58:36.013Z,99459.31
2023-03-23T16:01:27.035Z,99453.63
2023-03-23T16:04:17.839Z,99447.91
2023-03-23T16:07:07.159Z,99462.28
2023-03-23T16:09:55.637Z,99456.28
2023-03-23T16:12:45.506Z,99452.50
2023-03-23T16:15:34.190Z,99443.53
2023-03-23T16:18:23.722Z,99389.72
2023-03-23T16:21:12.229Z,99438.69
2023-03-23T16:24:01.426Z,99430.19
2023-03-23T16:26:50.050Z,99427.22
2023-03-23T16:29:59.891Z,99426.97
2023-03-23T16:32:48.447Z,99426.09
2023-03-23T16:35:37.594Z,99419.88
2023-03-23T16:38:26.399Z,99421.19
2023-03-23T16:41:14.917Z,99413.84
2023-03-23T16:44:03.417Z,99407.09
2023-03-23T16:46:53.314Z,99402.16
2023-03-23T16:49:41.783Z,99406.44
2023-03-23T16:52:30.345Z,99406.16
2023-03-23T16:55:18.987Z,99362.41
2023-03-23T17:00:59.551Z,99402.66
2023-03-23T17:03:49.612Z,99400.75
2023-03-23T17:06:38.376Z,99369.19
2023-03-23T17:09:27.072Z,99393.28
2023-03-23T17:12:15.503Z,99389.16
2023-03-23T17:15:04.605Z,99392.13
2023-03-23T17:17:54.021Z,99396.38
2023-03-23T17:20:43.950Z,99372.72
2023-03-23T17:23:32.438Z,99389.53
2023-03-23T17:26:20.988Z,99382.22
2023-03-23T17:29:09.476Z,99386.03
2023-03-23T17:31:58.111Z,99386.53
2023-03-23T17:34:46.821Z,99369.91
2023-03-23T17:37:37.859Z,99373.47
2023-03-23T17:40:26.632Z,99378.88
2023-03-23T17:43:15.197Z,99391.09
2023-03-23T17:46:03.711Z,99376.16
2023-03-23T17:48:52.612Z,99387.13
2023-03-23T17:51:41.599Z,99381.56
2023-03-23T17:54:32.009Z,99393.38
2023-03-23T17:57:20.742Z,99387.47
2023-03-23T18:00:11.289Z,99390.44
2023-03-23T18:02:59.884Z,99389.06
2023-03-23T18:05:48.571Z,99397.34
2023-03-23T18:08:37.613Z,99389.41
2023-03-23T18:11:28.115Z,99391.53
2023-03-23T18:14:16.647Z,99393.13
2023-03-23T18:17:05.348Z,99394.19
2023-03-23T18:19:53.789Z,99391.25
2023-03-23T18:22:42.283Z,99391.75
2023-03-23T18:25:30.806Z,99390.38
2023-03-23T18:28:20.665Z,99391.66
2023-03-23T18:31:11.366Z,99394.38
2023-03-23T18:33:59.851Z,99385.97
2023-03-23T18:36:48.337Z,99391.88
2023-03-23T18:39:37.946Z,99389.91
2023-03-23T18:42:26.755Z,99393.91
2023-03-23T18:45:16.691Z,99397.94
2023-03-23T18:48:05.682Z,99388.97
2023-03-23T18:50:56.123Z,99396.22
2023-03-23T18:53:44.652Z,99395.59
2023-03-23T18:56:33.244Z,99396.94
2023-03-23T18:59:23.971Z,99396.09
2023-03-23T19:02:13.919Z,99394.13
2023-03-23T19:05:02.502Z,99394.72
2023-03-23T19:07:53.122Z,99398.38
2023-03-23T19:10:43.085Z,99371.44
2023-03-23T19:13:33.979Z,99383.44
2023-03-23T19:16:22.975Z,99398.06
2023-03-23T19:19:12.921Z,99397.03
2023-03-23T19:22:01.427Z,99396.94
2023-03-23T19:24:49.931Z,99392.28
2023-03-23T19:28:05.784Z,99394.81
2023-03-23T19:30:47.930Z,99392.56
2023-03-23T19:33:36.784Z,99375.72
2023-03-23T19:36:27.155Z,99397.16
2023-03-23T19:39:15.849Z,99392.50
2023-03-23T19:42:04.807Z,99387.69
2023-03-23T19:44:53.443Z,99386.47
2023-03-23T19:47:42.083Z,99378.50
2023-03-23T19:50:31.678Z,99377.34
2023-03-23T19:53:21.842Z,99385.13
2023-03-23T19:56:13.464Z,99353.84
2023-03-23T19:59:02.029Z,99373.59
2023-03-23T20:01:50.550Z,99370.44
2023-03-23T20:04:39.976Z,99334.38
2023-03-23T20:07:28.701Z,99368.75
2023-03-23T20:10:18.898Z,99369.78
2023-03-23T20:13:08.146Z,99364.53
2023-03-23T20:15:59.703Z,99363.88
2023-03-23T20:18:50.317Z,99333.25
2023-03-23T20:21:39.684Z,99366.16
2023-03-23T20:24:28.374Z,99363.41
2023-03-23T20:27:18.714Z,99354.38
2023-03-23T20:30:08.565Z,99362.72
2023-03-23T20:32:58.196Z,99358.03
2023-03-23T20:35:46.879Z,99362.53
2023-03-23T20:38:37.321Z,99352.31
2023-03-23T20:41:26.180Z,99357.06
2023-03-23T20:44:16.235Z,99354.28
2023-03-23T20:47:06.057Z,99366.91
2023-03-23T20:49:55.209Z,99361.19
2023-03-23T20:52:44.708Z,99338.41
2023-03-23T20:55:33.214Z,99355.84
2023-03-23T20:58:22.520Z,99350.22
2023-03-23T21:01:12.763Z,99350.03
2023-03-23T21:04:02.932Z,99339.78
2023-03-23T21:06:51.809Z,99343.72
2023-03-23T21:09:40.792Z,99345.88
2023-03-23T21:12:29.312Z,99347.22
2023-03-23T21:15:17.955Z,99347.59
2023-03-23T21:18:08.101Z,99335.63
2023-03-23T21:20:57.208Z,99330.81
2023-03-23T21:23:52.107Z,99332.63
2023-03-23T21:26:44.420Z,99325.00
2023-03-23T21:29:32.920Z,99325.41
2023-03-23T21:32:22.811Z,99320.50
2023-03-23T21:35:12.944Z,99318.13
2023-03-23T21:38:01.485Z,99283.09
2023-03-23T21:40:49.971Z,99316.75
2023-03-23T21:43:40.646Z,99312.63
2023-03-23T21:46:29.285Z,99302.56
2023-03-23T21:49:17.784Z,99302.50
2023-03-23T21:52:07.638Z,99297.66
2023-03-23T21:54:58.790Z,99288.94
2023-03-23T21:57:47.917Z,99286.94
2023-03-23T22:00:36.428Z,99276.50
2023-03-23T22:03:25.667Z,99159.44
2023-03-23T22:06:17.037Z,99277.69
2023-03-23T22:09:07.014Z,99263.13
2023-03-23T22:11:55.728Z,99274.56
2023-03-23T22:14:44.697Z,99261.00
2023-03-23T22:17:33.293Z,99255.69
2023-03-23T22:20:21.950Z,99253.09
2023-03-23T22:23:10.874Z,99250.34
2023-03-23T22:26:00.972Z,99241.28
2023-03-23T22:28:51.081Z,99236.53
2023-03-23T22:31:40.875Z,99236.53
2023-03-23T22:34:29.644Z,99236.06
2023-03-23T22:37:18.736Z,99248.00
2023-03-23T22:40:09.630Z,99245.31
2023-03-23T22:42:59.637Z,99261.75
2023-03-23T22:45:50.709Z,99263.09
2023-03-23T22:48:39.499Z,99246.03
2023-03-23T22:51:28.243Z,99193.06
2023-03-23T22:54:16.848Z,99242.16
2023-03-23T22:57:05.526Z,99243.75
2023-03-23T22:59:55.509Z,99241.53
2023-03-23T23:02:44.445Z,99230.75
2023-03-23T23:05:33.119Z,99234.03
2023-03-23T23:08:21.957Z,99221.91
2023-03-23T23:11:12.619Z,99230.28
2023-03-23T23:14:01.219Z,99248.50
2023-03-23T23:16:51.779Z,99229.66
2023-03-23T23:19:40.534Z,99252.69
2023-03-23T23:22:29.116Z,99244.38
2023-03-23T23:25:17.780Z,99242.41
2023-03-23T23:28:07.454Z,99229.00
2023-03-23T23:30:56.326Z,99214.16
2023-03-23T23:33:46.366Z,99201.91
2023-03-23T23:36:34.959Z,99197.66
2023-03-23T23:39:23.575Z,99190.69
2023-03-23T23:42:12.622Z,99182.66
2023-03-23T23:45:01.295Z,99190.03
2023-03-23T23:47:50.343Z,99192.88
2023-03-23T23:50:40.347Z,99183.06
2023-03-23T23:53:28.882Z,99187.56
2023-03-23T23:56:19.280Z,99175.34
2023-03-23T23:59:07.865Z,99181.97
